sensor_id;sensor_type;location;lat;lon;timestamp;pressure;altitude;pressure_sealevel;temperature;humidity
66703;BME280;60933;46.398;-63.798;2023-04-19T00:00:56;100505.28;;;10.62;65.36
66703;BME280;60933;46.398;-63.798;2023-04-19T00:03:22;100506.41;;;10.53;65.58
66703;BME280;60933;46.398;-63.798;2023-04-19T00:05:49;100521.19;;;10.48;64.82
66703;BME280;60933;46.398;-63.798;2023-04-19T00:08:15;100523.22;;;10.37;64.06
66703;BME280;60933;46.398;-63.798;2023-04-19T00:10:41;100518.25;;;10.29;62.66
66703;BME280;60933;46.398;-63.798;2023-04-19T00:13:07;100536.44;;;10.24;62.10
66703;BME280;60933;46.398;-63.798;2023-04-19T00:15:33;100528.94;;;10.15;61.60
66703;BME280;60933;46.398;-63.798;2023-04-19T00:17:59;100536.72;;;10.12;61.33
66703;BME280;60933;46.398;-63.798;2023-04-19T00:20:26;100540.28;;;10.08;60.90
66703;BME280;60933;46.398;-63.798;2023-04-19T00:22:52;100539.59;;;10.01;60.13
66703;BME280;60933;46.398;-63.798;2023-04-19T00:25:18;100550.84;;;9.98;60.85
66703;BME280;60933;46.398;-63.798;2023-04-19T00:27:44;100544.16;;;9.91;59.93
66703;BME280;60933;46.398;-63.798;2023-04-19T00:30:10;100555.28;;;9.93;60.60
66703;BME280;60933;46.398;-63.798;2023-04-19T00:32:37;100551.16;;;9.86;59.31
66703;BME280;60933;46.398;-63.798;2023-04-19T00:35:03;100550.38;;;9.82;59.88
66703;BME280;60933;46.398;-63.798;2023-04-19T00:37:29;100553.91;;;9.78;60.35
66703;BME280;60933;46.398;-63.798;2023-04-19T00:39:55;100540.34;;;9.70;59.18
66703;BME280;60933;46.398;-63.798;2023-04-19T00:42:21;100542.38;;;9.59;60.76
66703;BME280;60933;46.398;-63.798;2023-04-19T00:44:47;100530.81;;;9.38;60.84
66703;BME280;60933;46.398;-63.798;2023-04-19T00:47:13;100549.75;;;9.37;61.33
66703;BME280;60933;46.398;-63.798;2023-04-19T00:49:40;100556.78;;;9.28;61.13
66703;BME280;60933;46.398;-63.798;2023-04-19T00:52:07;100568.13;;;9.21;60.91
66703;BME280;60933;46.398;-63.798;2023-04-19T00:54:33;100564.84;;;9.14;61.73
66703;BME280;60933;46.398;-63.798;2023-04-19T00:56:59;100568.66;;;8.96;61.04
66703;BME280;60933;46.398;-63.798;2023-04-19T00:59:26;100572.34;;;8.83;61.96
66703;BME280;60933;46.398;-63.798;2023-04-19T01:01:52;100569.94;;;8.74;62.60
66703;BME280;60933;46.398;-63.798;2023-04-19T01:04:18;100567.47;;;8.70;62.66
66703;BME280;60933;46.398;-63.798;2023-04-19T01:06:44;100579.56;;;8.65;63.40
66703;BME280;60933;46.398;-63.798;2023-04-19T01:09:10;100586.59;;;8.57;63.00
66703;BME280;60933;46.398;-63.798;2023-04-19T01:11:36;100578.34;;;8.38;63.32
66703;BME280;60933;46.398;-63.798;2023-04-19T01:14:03;100587.84;;;8.34;64.08
66703;BME280;60933;46.398;-63.798;2023-04-19T01:16:29;100592.25;;;8.26;63.95
66703;BME280;60933;46.398;-63.798;2023-04-19T01:18:55;100601.84;;;8.16;64.38
66703;BME280;60933;46.398;-63.798;2023-04-19T01:21:21;100600.19;;;8.12;64.83
66703;BME280;60933;46.398;-63.798;2023-04-19T01:23:47;100606.28;;;8.08;64.52
66703;BME280;60933;46.398;-63.798;2023-04-19T01:26:13;100599.66;;;7.93;64.76
66703;BME280;60933;46.398;-63.798;2023-04-19T01:28:41;100606.59;;;7.88;64.89
66703;BME280;60933;46.398;-63.798;2023-04-19T01:31:07;100610.16;;;7.81;64.83
66703;BME280;60933;46.398;-63.798;2023-04-19T01:33:33;100619.72;;;7.69;65.35
66703;BME280;60933;46.398;-63.798;2023-04-19T01:35:59;100621.63;;;7.58;65.37
66703;BME280;60933;46.398;-63.798;2023-04-19T01:38:25;100624.31;;;7.47;65.91
66703;BME280;60933;46.398;-63.798;2023-04-19T01:40:51;100630.34;;;7.46;65.91
66703;BME280;60933;46.398;-63.798;2023-04-19T01:43:18;100637.25;;;7.42;65.78
66703;BME280;60933;46.398;-63.798;2023-04-19T01:45:44;100635.59;;;7.37;66.03
66703;BME280;60933;46.398;-63.798;2023-04-19T01:48:10;100630.56;;;7.27;66.19
66703;BME280;60933;46.398;-63.798;2023-04-19T01:50:36;100640.06;;;7.22;65.95
66703;BME280;60933;46.398;-63.798;2023-04-19T01:53:02;100638.38;;;7.18;65.89
66703;BME280;60933;46.398;-63.798;2023-04-19T01:55:28;100635.09;;;7.08;66.29
66703;BME280;60933;46.398;-63.798;2023-04-19T01:57:55;100638.63;;;6.98;66.63
66703;BME280;60933;46.398;-63.798;2023-04-19T02:00:21;100637.91;;;6.87;67.06
66703;BME280;60933;46.398;-63.798;2023-04-19T02:02:47;100643.13;;;6.80;66.88
66703;BME280;60933;46.398;-63.798;2023-04-19T02:05:14;100633.75;;;6.75;66.66
66703;BME280;60933;46.398;-63.798;2023-04-19T02:07:40;100644.09;;;6.69;67.21
66703;BME280;60933;46.398;-63.798;2023-04-19T02:10:09;100639.88;;;6.60;67.60
66703;BME280;60933;46.398;-63.798;2023-04-19T02:12:36;100635.63;;;6.57;67.20
66703;BME280;60933;46.398;-63.798;2023-04-19T02:15:03;100636.50;;;6.58;67.54
66703;BME280;60933;46.398;-63.798;2023-04-19T02:17:29;100639.06;;;6.58;68.30
66703;BME280;60933;46.398;-63.798;2023-04-19T02:19:56;100645.06;;;6.55;68.59
66703;BME280;60933;46.398;-63.798;2023-04-19T02:22:22;100626.28;;;6.52;68.54
66703;BME280;60933;46.398;-63.798;2023-04-19T02:24:51;100631.47;;;6.47;68.96
66703;BME280;60933;46.398;-63.798;2023-04-19T02:27:17;100632.31;;;6.47;69.33
66703;BME280;60933;46.398;-63.798;2023-04-19T02:29:44;100628.84;;;6.53;68.59
66703;BME280;60933;46.398;-63.798;2023-04-19T02:32:11;100626.31;;;6.50;68.47
66703;BME280;60933;46.398;-63.798;2023-04-19T02:34:38;100633.97;;;6.52;69.25
66703;BME280;60933;46.398;-63.798;2023-04-19T02:37:04;100631.41;;;6.53;69.14
66703;BME280;60933;46.398;-63.798;2023-04-19T02:39:30;100633.13;;;6.54;69.45
66703;BME280;60933;46.398;-63.798;2023-04-19T02:41:56;100635.63;;;6.57;69.05
66703;BME280;60933;46.398;-63.798;2023-04-19T02:44:23;100635.66;;;6.56;69.09
66703;BME280;60933;46.398;-63.798;2023-04-19T02:46:52;100634.75;;;6.60;68.39
66703;BME280;60933;46.398;-63.798;2023-04-19T02:49:19;100630.50;;;6.59;68.55
66703;BME280;60933;46.398;-63.798;2023-04-19T02:51:46;100630.50;;;6.60;68.77
66703;BME280;60933;46.398;-63.798;2023-04-19T02:54:12;100626.25;;;6.58;69.06
66703;BME280;60933;46.398;-63.798;2023-04-19T02:56:39;100614.31;;;6.52;69.14
66703;BME280;60933;46.398;-63.798;2023-04-19T02:59:05;100628.84;;;6.53;69.45
66703;BME280;60933;46.398;-63.798;2023-04-19T03:01:31;100621.16;;;6.52;69.06
66703;BME280;60933;46.398;-63.798;2023-04-19T03:03:57;100616.94;;;6.47;69.36
66703;BME280;60933;46.398;-63.798;2023-04-19T03:06:24;100616.84;;;6.55;68.76
66703;BME280;60933;46.398;-63.798;2023-04-19T03:08:50;100618.50;;;6.61;68.41
66703;BME280;60933;46.398;-63.798;2023-04-19T03:11:17;100623.63;;;6.64;68.73
66703;BME280;60933;46.398;-63.798;2023-04-19T03:13:43;100611.66;;;6.60;68.23
66703;BME280;60933;46.398;-63.798;2023-04-19T03:16:09;100628.75;;;6.64;68.30
66703;BME280;60933;46.398;-63.798;2023-04-19T03:18:36;100627.88;;;6.65;68.11
66703;BME280;60933;46.398;-63.798;2023-04-19T03:21:02;100633.84;;;6.69;67.44
66703;BME280;60933;46.398;-63.798;2023-04-19T03:23:29;100632.06;;;6.74;67.41
66703;BME280;60933;46.398;-63.798;2023-04-19T03:25:55;100635.41;;;6.80;67.19
66703;BME280;60933;46.398;-63.798;2023-04-19T03:28:21;100643.13;;;6.77;67.34
66703;BME280;60933;46.398;-63.798;2023-04-19T03:30:47;100639.78;;;6.71;67.52
66703;BME280;60933;46.398;-63.798;2023-04-19T03:33:14;100631.28;;;6.65;67.65
66703;BME280;60933;46.398;-63.798;2023-04-19T03:35:40;100644.97;;;6.64;68.12
66703;BME280;60933;46.398;-63.798;2023-04-19T03:38:06;100639.94;;;6.57;68.23
66703;BME280;60933;46.398;-63.798;2023-04-19T03:40:32;100628.03;;;6.49;68.79
66703;BME280;60933;46.398;-63.798;2023-04-19T03:42:59;100638.31;;;6.46;68.70
66703;BME280;60933;46.398;-63.798;2023-04-19T03:45:25;100639.22;;;6.39;68.99
66703;BME280;60933;46.398;-63.798;2023-04-19T03:47:51;100641.84;;;6.33;69.56
66703;BME280;60933;46.398;-63.798;2023-04-19T03:50:17;100635.94;;;6.28;69.28
66703;BME280;60933;46.398;-63.798;2023-04-19T03:52:44;100638.53;;;6.23;69.68
66703;BME280;60933;46.398;-63.798;2023-04-19T03:55:10;100636.88;;;6.16;69.90
66703;BME280;60933;46.398;-63.798;2023-04-19T03:57:39;100636.06;;;6.09;70.49
66703;BME280;60933;46.398;-63.798;2023-04-19T04:00:06;100650.66;;;6.04;70.43
66703;BME280;60933;46.398;-63.798;2023-04-19T04:02:36;100642.13;;;5.99;70.73
66703;BME280;60933;46.398;-63.798;2023-04-19T04:05:02;100642.97;;;5.95;70.88
66703;BME280;60933;46.398;-63.798;2023-04-19T04:07:28;100650.69;;;5.92;70.96
66703;BME280;60933;46.398;-63.798;2023-04-19T04:09:54;100645.59;;;5.89;71.50
66703;BME280;60933;46.398;-63.798;2023-04-19T04:12:20;100649.88;;;5.86;70.89
66703;BME280;60933;46.398;-63.798;2023-04-19T04:14:46;100640.47;;;5.85;71.11
66703;BME280;60933;46.398;-63.798;2023-04-19T04:17:12;100633.69;;;5.83;71.31
66703;BME280;60933;46.398;-63.798;2023-04-19T04:19:38;100631.13;;;5.81;70.80
66703;BME280;60933;46.398;-63.798;2023-04-19T04:22:05;100635.41;;;5.79;70.82
66703;BME280;60933;46.398;-63.798;2023-04-19T04:24:37;100634.56;;;5.77;70.99
66703;BME280;60933;46.398;-63.798;2023-04-19T04:27:06;100630.34;;;5.73;71.50
66703;BME280;60933;46.398;-63.798;2023-04-19T04:29:38;100643.13;;;5.73;71.05
66703;BME280;60933;46.398;-63.798;2023-04-19T04:32:06;100644.00;;;5.70;71.40
66703;BME280;60933;46.398;-63.798;2023-04-19T04:34:33;100637.16;;;5.71;71.04
66703;BME280;60933;46.398;-63.798;2023-04-19T04:37:01;100643.16;;;5.70;71.36
66703;BME280;60933;46.398;-63.798;2023-04-19T04:39:28;100644.84;;;5.71;71.20
66703;BME280;60933;46.398;-63.798;2023-04-19T04:41:55;100641.44;;;5.70;71.38
66703;BME280;60933;46.398;-63.798;2023-04-19T04:44:24;100644.84;;;5.71;71.10
66703;BME280;60933;46.398;-63.798;2023-04-19T04:46:50;100642.28;;;5.71;71.05
66703;BME280;60933;46.398;-63.798;2023-04-19T04:49:16;100647.34;;;5.79;70.62
66703;BME280;60933;46.398;-63.798;2023-04-19T04:51:42;100660.16;;;5.80;70.43
66703;BME280;60933;46.398;-63.798;2023-04-19T04:54:08;100649.03;;;5.83;70.51
66703;BME280;60933;46.398;-63.798;2023-04-19T04:56:34;100648.16;;;5.85;69.55
66703;BME280;60933;46.398;-63.798;2023-04-19T04:59:01;100651.59;;;5.84;70.64
66703;BME280;60933;46.398;-63.798;2023-04-19T05:01:27;100646.47;;;5.86;70.16
66703;BME280;60933;46.398;-63.798;2023-04-19T05:03:53;100652.41;;;5.88;69.98
66703;BME280;60933;46.398;-63.798;2023-04-19T05:06:19;100653.28;;;5.89;69.77
66703;BME280;60933;46.398;-63.798;2023-04-19T05:08:46;100644.81;;;5.77;70.25
66703;BME280;60933;46.398;-63.798;2023-04-19T05:11:12;100652.44;;;5.86;70.02
66703;BME280;60933;46.398;-63.798;2023-04-19T05:13:38;100663.53;;;5.87;69.21
66703;BME280;60933;46.398;-63.798;2023-04-19T05:16:04;100662.69;;;5.85;69.66
66703;BME280;60933;46.398;-63.798;2023-04-19T05:18:30;100656.75;;;5.75;69.97
66703;BME280;60933;46.398;-63.798;2023-04-19T05:20:56;100670.47;;;5.66;70.33
66703;BME280;60933;46.398;-63.798;2023-04-19T05:23:22;100654.38;;;5.46;70.31
66703;BME280;60933;46.398;-63.798;2023-04-19T05:25:48;100677.38;;;5.53;70.16
66703;BME280;60933;46.398;-63.798;2023-04-19T05:28:15;100674.84;;;5.49;70.46
66703;BME280;60933;46.398;-63.798;2023-04-19T05:30:41;100668.94;;;5.33;71.00
66703;BME280;60933;46.398;-63.798;2023-04-19T05:33:07;100683.44;;;5.35;70.68
66703;BME280;60933;46.398;-63.798;2023-04-19T05:35:33;100677.50;;;5.29;71.09
66703;BME280;60933;46.398;-63.798;2023-04-19T05:37:59;100685.22;;;5.19;72.53
66703;BME280;60933;46.398;-63.798;2023-04-19T05:40:25;100692.91;;;5.13;72.00
66703;BME280;60933;46.398;-63.798;2023-04-19T05:42:51;100701.44;;;5.11;72.21
66703;BME280;60933;46.398;-63.798;2023-04-19T05:45:17;100705.72;;;5.07;72.06
66703;BME280;60933;46.398;-63.798;2023-04-19T05:47:44;100705.69;;;5.12;71.77
66703;BME280;60933;46.398;-63.798;2023-04-19T05:50:10;100704.84;;;5.13;71.02
66703;BME280;60933;46.398;-63.798;2023-04-19T05:52:36;100706.56;;;5.09;72.45
66703;BME280;60933;46.398;-63.798;2023-04-19T05:55:02;100709.13;;;5.06;72.34
66703;BME280;60933;46.398;-63.798;2023-04-19T05:57:29;100725.34;;;5.02;74.04
66703;BME280;60933;46.398;-63.798;2023-04-19T05:59:55;100716.81;;;5.00;74.12
66703;BME280;60933;46.398;-63.798;2023-04-19T06:02:21;100714.28;;;4.98;73.08
66703;BME280;60933;46.398;-63.798;2023-04-19T06:04:47;100733.06;;;4.94;74.15
66703;BME280;60933;46.398;-63.798;2023-04-19T06:07:13;100730.50;;;4.89;73.95
66703;BME280;60933;46.398;-63.798;2023-04-19T06:09:39;100735.59;;;4.86;73.54
66703;BME280;60933;46.398;-63.798;2023-04-19T06:12:06;100733.91;;;4.82;73.71
66703;BME280;60933;46.398;-63.798;2023-04-19T06:14:32;100730.50;;;4.80;72.62
66703;BME280;60933;46.398;-63.798;2023-04-19T06:16:58;100738.19;;;4.75;73.26
66703;BME280;60933;46.398;-63.798;2023-04-19T06:19:24;100742.44;;;4.75;72.86
66703;BME280;60933;46.398;-63.798;2023-04-19T06:21:50;100751.81;;;4.73;73.26
66703;BME280;60933;46.398;-63.798;2023-04-19T06:24:16;100756.06;;;4.68;73.80
66703;BME280;60933;46.398;-63.798;2023-04-19T06:26:42;100762.91;;;4.66;73.76
66703;BME280;60933;46.398;-63.798;2023-04-19T06:29:08;100759.50;;;4.64;74.36
66703;BME280;60933;46.398;-63.798;2023-04-19T06:31:34;100764.59;;;4.70;73.03
66703;BME280;60933;46.398;-63.798;2023-04-19T06:34:00;100765.44;;;4.73;73.00
66703;BME280;60933;46.398;-63.798;2023-04-19T06:36:26;100766.28;;;4.68;73.51
66703;BME280;60933;46.398;-63.798;2023-04-19T06:38:52;100762.03;;;4.59;73.54
66703;BME280;60933;46.398;-63.798;2023-04-19T06:41:19;100775.69;;;4.59;73.74
66703;BME280;60933;46.398;-63.798;2023-04-19T06:43:45;100769.72;;;4.56;73.61
66703;BME280;60933;46.398;-63.798;2023-04-19T06:46:11;100769.72;;;4.48;74.35
66703;BME280;60933;46.398;-63.798;2023-04-19T06:48:38;100770.56;;;4.46;74.11
66703;BME280;60933;46.398;-63.798;2023-04-19T06:51:05;100762.91;;;4.44;74.62
66703;BME280;60933;46.398;-63.798;2023-04-19T06:53:31;100762.06;;;4.47;73.97
66703;BME280;60933;46.398;-63.798;2023-04-19T06:56:01;100762.91;;;4.44;73.87
66703;BME280;60933;46.398;-63.798;2023-04-19T06:58:27;100763.72;;;4.40;74.95
66703;BME280;60933;46.398;-63.798;2023-04-19T07:00:54;100765.44;;;4.35;74.93
66703;BME280;60933;46.398;-63.798;2023-04-19T07:03:20;100765.44;;;4.28;75.38
66703;BME280;60933;46.398;-63.798;2023-04-19T07:05:47;100771.41;;;4.21;75.13
66703;BME280;60933;46.398;-63.798;2023-04-19T07:08:14;100782.44;;;4.16;76.54
66703;BME280;60933;46.398;-63.798;2023-04-19T07:10:40;100788.38;;;4.08;76.05
66703;BME280;60933;46.398;-63.798;2023-04-19T07:13:10;100784.97;;;4.05;74.74
66703;BME280;60933;46.398;-63.798;2023-04-19T07:15:36;100787.50;;;4.03;74.90
66703;BME280;60933;46.398;-63.798;2023-04-19T07:18:03;100790.91;;;3.99;75.86
66703;BME280;60933;46.398;-63.798;2023-04-19T07:20:29;100792.59;;;3.95;76.14
66703;BME280;60933;46.398;-63.798;2023-04-19T07:22:59;100795.97;;;3.91;76.46
66703;BME280;60933;46.398;-63.798;2023-04-19T07:25:25;100801.09;;;3.87;77.83
66703;BME280;60933;46.398;-63.798;2023-04-19T07:27:52;100807.88;;;3.85;78.39
66703;BME280;60933;46.398;-63.798;2023-04-19T07:30:19;100807.00;;;3.78;77.90
66703;BME280;60933;46.398;-63.798;2023-04-19T07:32:45;100810.41;;;3.75;78.79
66703;BME280;60933;46.398;-63.798;2023-04-19T07:35:12;100808.69;;;3.73;79.00
66703;BME280;60933;46.398;-63.798;2023-04-19T07:37:38;100808.66;;;3.70;77.68
66703;BME280;60933;46.398;-63.798;2023-04-19T07:40:04;100811.22;;;3.68;79.91
66703;BME280;60933;46.398;-63.798;2023-04-19T07:42:30;100807.81;;;3.63;77.93
66703;BME280;60933;46.398;-63.798;2023-04-19T07:44:57;100810.34;;;3.63;77.46
66703;BME280;60933;46.398;-63.798;2023-04-19T07:47:24;100829.03;;;3.60;76.34
66703;BME280;60933;46.398;-63.798;2023-04-19T07:49:54;100823.09;;;3.60;77.61
66703;BME280;60933;46.398;-63.798;2023-04-19T07:52:20;100823.94;;;3.59;76.98
66703;BME280;60933;46.398;-63.798;2023-04-19T07:54:46;100827.31;;;3.56;78.45
66703;BME280;60933;46.398;-63.798;2023-04-19T07:57:12;100832.41;;;3.53;79.04
66703;BME280;60933;46.398;-63.798;2023-04-19T07:59:39;100835.78;;;3.51;79.62
66703;BME280;60933;46.398;-63.798;2023-04-19T08:02:05;100831.53;;;3.46;78.13
66703;BME280;60933;46.398;-63.798;2023-04-19T08:04:32;100847.69;;;3.44;79.27
66703;BME280;60933;46.398;-63.798;2023-04-19T08:06:58;100850.22;;;3.41;78.52
66703;BME280;60933;46.398;-63.798;2023-04-19T08:09:24;100845.94;;;3.37;77.78
66703;BME280;60933;46.398;-63.798;2023-04-19T08:11:51;100848.47;;;3.32;78.62
66703;BME280;60933;46.398;-63.798;2023-04-19T08:14:18;100856.09;;;3.30;77.57
66703;BME280;60933;46.398;-63.798;2023-04-19T08:16:44;100850.97;;;3.27;77.46
66703;BME280;60933;46.398;-63.798;2023-04-19T08:19:10;100853.53;;;3.29;78.23
66703;BME280;60933;46.398;-63.798;2023-04-19T08:21:36;100858.63;;;3.27;79.19
66703;BME280;60933;46.398;-63.798;2023-04-19T08:24:02;100859.44;;;3.22;78.53
66703;BME280;60933;46.398;-63.798;2023-04-19T08:26:28;100865.38;;;3.21;80.00
66703;BME280;60933;46.398;-63.798;2023-04-19T08:28:54;100865.38;;;3.19;80.35
66703;BME280;60933;46.398;-63.798;2023-04-19T08:31:20;100857.63;;;3.08;80.59
66703;BME280;60933;46.398;-63.798;2023-04-19T08:33:47;100870.44;;;3.14;80.87
66703;BME280;60933;46.398;-63.798;2023-04-19T08:36:13;100871.25;;;3.10;80.08
66703;BME280;60933;46.398;-63.798;2023-04-19T08:38:39;100876.38;;;3.12;80.49
66703;BME280;60933;46.398;-63.798;2023-04-19T08:41:05;100875.50;;;3.10;80.47
66703;BME280;60933;46.398;-63.798;2023-04-19T08:43:34;100873.78;;;3.06;80.86
66703;BME280;60933;46.398;-63.798;2023-04-19T08:46:02;100874.56;;;3.01;79.37
66703;BME280;60933;46.398;-63.798;2023-04-19T08:48:31;100879.69;;;3.03;80.76
66703;BME280;60933;46.398;-63.798;2023-04-19T08:51:00;100877.94;;;2.97;79.40
66703;BME280;60933;46.398;-63.798;2023-04-19T08:53:30;100887.28;;;2.97;79.92
66703;BME280;60933;46.398;-63.798;2023-04-19T08:55:58;100886.44;;;2.99;79.09
66703;BME280;60933;46.398;-63.798;2023-04-19T08:58:25;100895.81;;;2.99;79.99
66703;BME280;60933;46.398;-63.798;2023-04-19T09:00:51;100903.47;;;2.97;80.30
66703;BME280;60933;46.398;-63.798;2023-04-19T09:03:17;100898.34;;;2.97;82.17
66703;BME280;60933;46.398;-63.798;2023-04-19T09:05:43;100911.94;;;2.96;81.42
66703;BME280;60933;46.398;-63.798;2023-04-19T09:08:26;100912.78;;;2.95;81.44
66703;BME280;60933;46.398;-63.798;2023-04-19T09:10:54;100915.31;;;2.95;81.17
66703;BME280;60933;46.398;-63.798;2023-04-19T09:13:21;100920.44;;;2.97;80.80
66703;BME280;60933;46.398;-63.798;2023-04-19T09:15:47;100918.72;;;2.94;78.92
66703;BME280;60933;46.398;-63.798;2023-04-19T09:18:13;100930.66;;;2.98;79.75
66703;BME280;60933;46.398;-63.798;2023-04-19T09:20:42;100923.88;;;2.99;80.27
66703;BME280;60933;46.398;-63.798;2023-04-19T09:23:10;100922.97;;;2.97;80.43
66703;BME280;60933;46.398;-63.798;2023-04-19T09:26:01;100913.63;;;2.94;81.32
66703;BME280;60933;46.398;-63.798;2023-04-19T09:28:29;100922.13;;;2.96;81.89
66703;BME280;60933;46.398;-63.798;2023-04-19T09:30:56;100936.66;;;3.02;80.50
66703;BME280;60933;46.398;-63.798;2023-04-19T09:33:33;100940.94;;;3.05;79.88
66703;BME280;60933;46.398;-63.798;2023-04-19T09:36:00;100939.22;;;3.07;78.47
66703;BME280;60933;46.398;-63.798;2023-04-19T09:38:27;100931.63;;;3.11;79.62
66703;BME280;60933;46.398;-63.798;2023-04-19T09:41:05;100931.63;;;3.11;77.43
66703;BME280;60933;46.398;-63.798;2023-04-19T09:43:32;100941.84;;;3.14;78.53
66703;BME280;60933;46.398;-63.798;2023-04-19T09:45:59;100946.16;;;3.20;77.13
66703;BME280;60933;46.398;-63.798;2023-04-19T09:48:25;100953.81;;;3.23;78.05
66703;BME280;60933;46.398;-63.798;2023-04-19T09:51:00;100937.59;;;3.15;77.88
66703;BME280;60933;46.398;-63.798;2023-04-19T09:53:29;100952.16;;;3.24;77.23
66703;BME280;60933;46.398;-63.798;2023-04-19T09:55:57;100960.66;;;3.26;78.25
66703;BME280;60933;46.398;-63.798;2023-04-19T09:58:23;100958.97;;;3.25;78.32
66703;BME280;60933;46.398;-63.798;2023-04-19T10:00:50;100966.59;;;3.22;78.58
66703;BME280;60933;46.398;-63.798;2023-04-19T10:03:18;100984.47;;;3.25;78.67
66703;BME280;60933;46.398;-63.798;2023-04-19T10:05:44;100979.38;;;3.25;79.77
66703;BME280;60933;46.398;-63.798;2023-04-19T10:08:12;100981.09;;;3.27;79.75
66703;BME280;60933;46.398;-63.798;2023-04-19T10:10:39;100980.25;;;3.28;81.32
66703;BME280;60933;46.398;-63.798;2023-04-19T10:13:09;100985.38;;;3.28;80.34
66703;BME280;60933;46.398;-63.798;2023-04-19T10:15:36;100993.84;;;3.27;81.44
66703;BME280;60933;46.398;-63.798;2023-04-19T10:18:03;100993.84;;;3.27;81.48
66703;BME280;60933;46.398;-63.798;2023-04-19T10:20:54;100994.72;;;3.29;81.83
66703;BME280;60933;46.398;-63.798;2023-04-19T10:23:22;100996.44;;;3.32;80.32
66703;BME280;60933;46.398;-63.798;2023-04-19T10:25:57;100995.63;;;3.36;81.56
66703;BME280;60933;46.398;-63.798;2023-04-19T10:28:24;100987.13;;;3.36;81.35
66703;BME280;60933;46.398;-63.798;2023-04-19T10:31:03;100989.72;;;3.42;82.22
66703;BME280;60933;46.398;-63.798;2023-04-19T10:33:36;100986.38;;;3.49;84.00
66703;BME280;60933;46.398;-63.798;2023-04-19T10:36:03;100973.63;;;3.49;84.60
66703;BME280;60933;46.398;-63.798;2023-04-19T10:38:38;100971.19;;;3.63;84.68
66703;BME280;60933;46.398;-63.798;2023-04-19T10:41:05;100972.91;;;3.67;84.90
66703;BME280;60933;46.398;-63.798;2023-04-19T10:43:43;100980.59;;;3.72;85.39
66703;BME280;60933;46.398;-63.798;2023-04-19T10:49:07;101008.72;;;3.78;83.57
66703;BME280;60933;46.398;-63.798;2023-04-19T10:51:36;101012.16;;;3.80;82.40
66703;BME280;60933;46.398;-63.798;2023-04-19T10:54:07;101019.06;;;3.90;81.92
66703;BME280;60933;46.398;-63.798;2023-04-19T11:01:54;101025.09;;;4.08;80.27
66703;BME280;60933;46.398;-63.798;2023-04-19T11:07:04;101031.19;;;4.27;78.19
66703;BME280;60933;46.398;-63.798;2023-04-19T11:09:39;101027.81;;;4.33;77.42
66703;BME280;60933;46.398;-63.798;2023-04-19T11:12:14;101022.72;;;4.39;76.88
66703;BME280;60933;46.398;-63.798;2023-04-19T11:14:45;101020.19;;;4.45;75.63
66703;BME280;60933;46.398;-63.798;2023-04-19T11:17:23;101012.56;;;4.50;76.66
66703;BME280;60933;46.398;-63.798;2023-04-19T11:20:03;101027.06;;;4.52;77.10
66703;BME280;60933;46.398;-63.798;2023-04-19T11:22:45;101028.75;;;4.53;76.87
66703;BME280;60933;46.398;-63.798;2023-04-19T11:25:19;101027.94;;;4.59;76.72
66703;BME280;60933;46.398;-63.798;2023-04-19T11:27:47;101034.81;;;4.63;77.06
66703;BME280;60933;46.398;-63.798;2023-04-19T11:30:18;101033.97;;;4.66;76.78
66703;BME280;60933;46.398;-63.798;2023-04-19T11:35:22;101040.84;;;4.85;77.93
66703;BME280;60933;46.398;-63.798;2023-04-19T11:37:48;101042.56;;;4.93;76.74
66703;BME280;60933;46.398;-63.798;2023-04-19T11:40:16;101034.06;;;5.00;75.28
66703;BME280;60933;46.398;-63.798;2023-04-19T11:42:43;101028.13;;;5.05;76.23
66703;BME280;60933;46.398;-63.798;2023-04-19T11:45:10;101030.69;;;5.10;77.38
66703;BME280;60933;46.398;-63.798;2023-04-19T11:47:47;101032.41;;;5.17;77.70
66703;BME280;60933;46.398;-63.798;2023-04-19T11:50:34;101037.53;;;5.23;78.25
66703;BME280;60933;46.398;-63.798;2023-04-19T11:53:10;101030.75;;;5.29;78.98
66703;BME280;60933;46.398;-63.798;2023-04-19T11:55:36;101034.16;;;5.34;78.93
66703;BME280;60933;46.398;-63.798;2023-04-19T11:58:06;101024.75;;;5.39;76.54
66703;BME280;60933;46.398;-63.798;2023-04-19T12:00:34;101032.44;;;5.45;77.83
66703;BME280;60933;46.398;-63.798;2023-04-19T12:03:01;101039.28;;;5.52;76.00
66703;BME280;60933;46.398;-63.798;2023-04-19T12:05:28;101044.44;;;5.59;75.53
66703;BME280;60933;46.398;-63.798;2023-04-19T12:08:02;101055.50;;;5.70;77.25
66703;BME280;60933;46.398;-63.798;2023-04-19T12:10:31;101034.19;;;5.80;76.34
66703;BME280;60933;46.398;-63.798;2023-04-19T12:12:57;101032.47;;;5.95;75.68
66703;BME280;60933;46.398;-63.798;2023-04-19T12:15:42;101038.44;;;6.00;75.77
66703;BME280;60933;46.398;-63.798;2023-04-19T12:18:09;101047.00;;;6.05;74.19
66703;BME280;60933;46.398;-63.798;2023-04-19T12:20:36;101057.25;;;6.02;76.12
66703;BME280;60933;46.398;-63.798;2023-04-19T12:23:03;101045.28;;;6.01;75.83
66703;BME280;60933;46.398;-63.798;2023-04-19T12:25:31;101046.16;;;6.03;76.48
66703;BME280;60933;46.398;-63.798;2023-04-19T12:27:59;101041.88;;;6.07;76.19
66703;BME280;60933;46.398;-63.798;2023-04-19T12:30:26;101044.44;;;6.11;75.43
66703;BME280;60933;46.398;-63.798;2023-04-19T12:32:53;101047.84;;;6.20;75.18
66703;BME280;60933;46.398;-63.798;2023-04-19T12:35:21;101035.84;;;6.22;75.60
66703;BME280;60933;46.398;-63.798;2023-04-19T12:37:48;101033.28;;;6.31;75.34
66703;BME280;60933;46.398;-63.798;2023-04-19T12:40:14;101040.09;;;6.33;76.56
66703;BME280;60933;46.398;-63.798;2023-04-19T12:42:40;101041.81;;;6.34;76.64
66703;BME280;60933;46.398;-63.798;2023-04-19T12:45:07;101051.22;;;6.40;75.37
66703;BME280;60933;46.398;-63.798;2023-04-19T12:47:33;101060.59;;;6.47;75.07
66703;BME280;60933;46.398;-63.798;2023-04-19T12:49:59;101064.00;;;6.54;75.86
66703;BME280;60933;46.398;-63.798;2023-04-19T12:52:26;101059.69;;;6.61;76.02
66703;BME280;60933;46.398;-63.798;2023-04-19T12:54:52;101058.78;;;6.73;76.35